sensor_id;sensor_type;location;lat;lon;timestamp;P1;durP1;ratioP1;P2;durP2;ratioP2
11338;SDS011;5724;42.684;23.252;2023-05-10T00:01:27;7.60;;;7.00;;
11338;SDS011;5724;42.684;23.252;2023-05-10T00:03:53;7.07;;;6.60;;
11338;SDS011;5724;42.684;23.252;2023-05-10T00:06:18;6.80;;;6.50;;
11338;SDS011;5724;42.684;23.252;2023-05-10T00:08:44;7.67;;;7.27;;
11338;SDS011;5724;42.684;23.252;2023-05-10T00:11:10;7.67;;;7.27;;
11338;SDS011;5724;42.684;23.252;2023-05-10T00:13:35;8.57;;;7.90;;
11338;SDS011;5724;42.684;23.252;2023-05-10T00:16:01;8.10;;;7.60;;
11338;SDS011;5724;42.684;23.252;2023-05-10T00:18:26;7.13;;;6.83;;
11338;SDS011;5724;42.684;23.252;2023-05-10T00:20:52;7.00;;;6.50;;
11338;SDS011;5724;42.684;23.252;2023-05-10T00:23:17;7.53;;;7.17;;
11338;SDS011;5724;42.684;23.252;2023-05-10T00:25:43;7.30;;;6.80;;
11338;SDS011;5724;42.684;23.252;2023-05-10T00:28:08;7.33;;;7.03;;
11338;SDS011;5724;42.684;23.252;2023-05-10T00:30:34;7.13;;;6.80;;
11338;SDS011;5724;42.684;23.252;2023-05-10T00:33:00;6.63;;;6.33;;
11338;SDS011;5724;42.684;23.252;2023-05-10T00:35:25;8.17;;;7.57;;
11338;SDS011;5724;42.684;23.252;2023-05-10T00:37:51;7.43;;;7.03;;
11338;SDS011;5724;42.684;23.252;2023-05-10T00:40:16;7.63;;;7.23;;
11338;SDS011;5724;42.684;23.252;2023-05-10T00:42:42;7.10;;;6.80;;
11338;SDS011;5724;42.684;23.252;2023-05-10T00:45:07;8.33;;;7.87;;
11338;SDS011;5724;42.684;23.252;2023-05-10T00:47:33;8.13;;;7.63;;
11338;SDS011;5724;42.684;23.252;2023-05-10T00:49:59;7.10;;;6.70;;
11338;SDS011;5724;42.684;23.252;2023-05-10T00:52:28;6.73;;;6.43;;
11338;SDS011;5724;42.684;23.252;2023-05-10T00:54:55;7.70;;;7.23;;
11338;SDS011;5724;42.684;23.252;2023-05-10T00:57:21;8.10;;;7.60;;
11338;SDS011;5724;42.684;23.252;2023-05-10T00:59:46;7.80;;;7.50;;
11338;SDS011;5724;42.684;23.252;2023-05-10T01:02:13;8.00;;;7.40;;
11338;SDS011;5724;42.684;23.252;2023-05-10T01:04:38;7.90;;;7.50;;
11338;SDS011;5724;42.684;23.252;2023-05-10T01:07:04;8.37;;;7.90;;
11338;SDS011;5724;42.684;23.252;2023-05-10T01:09:30;8.57;;;7.97;;
11338;SDS011;5724;42.684;23.252;2023-05-10T01:11:56;8.20;;;7.80;;
11338;SDS011;5724;42.684;23.252;2023-05-10T01:14:21;8.23;;;7.83;;
11338;SDS011;5724;42.684;23.252;2023-05-10T01:16:47;8.60;;;8.20;;
11338;SDS011;5724;42.684;23.252;2023-05-10T01:19:24;8.40;;;7.87;;
11338;SDS011;5724;42.684;23.252;2023-05-10T01:32:36;9.20;;;8.63;;
11338;SDS011;5724;42.684;23.252;2023-05-10T01:40:37;8.23;;;7.83;;
11338;SDS011;5724;42.684;23.252;2023-05-10T01:43:03;8.30;;;7.90;;
11338;SDS011;5724;42.684;23.252;2023-05-10T01:45:34;7.43;;;7.03;;
11338;SDS011;5724;42.684;23.252;2023-05-10T01:50:30;6.50;;;6.10;;
11338;SDS011;5724;42.684;23.252;2023-05-10T01:52:57;6.87;;;6.57;;
11338;SDS011;5724;42.684;23.252;2023-05-10T01:55:27;6.33;;;6.03;;
11338;SDS011;5724;42.684;23.252;2023-05-10T01:57:58;5.73;;;5.43;;
11338;SDS011;5724;42.684;23.252;2023-05-10T02:00:28;5.43;;;5.23;;
11338;SDS011;5724;42.684;23.252;2023-05-10T02:02:56;5.47;;;5.07;;
11338;SDS011;5724;42.684;23.252;2023-05-10T02:05:22;5.10;;;4.90;;
11338;SDS011;5724;42.684;23.252;2023-05-10T02:07:49;5.60;;;5.30;;
11338;SDS011;5724;42.684;23.252;2023-05-10T02:10:16;5.23;;;5.03;;
11338;SDS011;5724;42.684;23.252;2023-05-10T02:12:43;5.27;;;5.07;;
11338;SDS011;5724;42.684;23.252;2023-05-10T02:15:11;5.00;;;4.80;;
11338;SDS011;5724;42.684;23.252;2023-05-10T02:17:40;4.73;;;4.53;;
11338;SDS011;5724;42.684;23.252;2023-05-10T02:20:08;4.93;;;4.73;;
11338;SDS011;5724;42.684;23.252;2023-05-10T02:22:35;5.17;;;4.97;;
11338;SDS011;5724;42.684;23.252;2023-05-10T02:25:02;4.60;;;4.30;;
11338;SDS011;5724;42.684;23.252;2023-05-10T02:27:29;4.80;;;4.60;;
11338;SDS011;5724;42.684;23.252;2023-05-10T02:29:57;4.33;;;4.13;;
11338;SDS011;5724;42.684;23.252;2023-05-10T02:32:24;4.30;;;4.20;;
11338;SDS011;5724;42.684;23.252;2023-05-10T02:34:52;4.73;;;4.43;;
11338;SDS011;5724;42.684;23.252;2023-05-10T02:37:19;5.13;;;4.73;;
11338;SDS011;5724;42.684;23.252;2023-05-10T02:39:50;4.67;;;4.33;;
11338;SDS011;5724;42.684;23.252;2023-05-10T02:42:22;4.70;;;4.50;;
11338;SDS011;5724;42.684;23.252;2023-05-10T02:44:50;5.20;;;4.63;;
11338;SDS011;5724;42.684;23.252;2023-05-10T02:47:18;4.97;;;4.77;;
11338;SDS011;5724;42.684;23.252;2023-05-10T02:49:44;4.97;;;4.67;;
11338;SDS011;5724;42.684;23.252;2023-05-10T02:52:10;5.20;;;4.80;;
11338;SDS011;5724;42.684;23.252;2023-05-10T02:54:41;4.80;;;4.60;;
11338;SDS011;5724;42.684;23.252;2023-05-10T02:57:11;4.73;;;4.53;;
11338;SDS011;5724;42.684;23.252;2023-05-10T02:59:41;5.47;;;5.17;;
11338;SDS011;5724;42.684;23.252;2023-05-10T03:02:08;5.40;;;5.00;;
11338;SDS011;5724;42.684;23.252;2023-05-10T03:04:34;5.60;;;5.10;;
11338;SDS011;5724;42.684;23.252;2023-05-10T03:07:00;5.23;;;4.87;;
11338;SDS011;5724;42.684;23.252;2023-05-10T03:09:26;5.10;;;4.80;;
11338;SDS011;5724;42.684;23.252;2023-05-10T03:14:49;5.13;;;4.83;;
11338;SDS011;5724;42.684;23.252;2023-05-10T03:17:23;4.90;;;4.60;;
11338;SDS011;5724;42.684;23.252;2023-05-10T03:19:56;5.77;;;5.47;;
11338;SDS011;5724;42.684;23.252;2023-05-10T03:22:24;4.90;;;4.60;;
11338;SDS011;5724;42.684;23.252;2023-05-10T03:24:55;5.40;;;5.10;;
11338;SDS011;5724;42.684;23.252;2023-05-10T03:27:23;5.20;;;4.90;;
11338;SDS011;5724;42.684;23.252;2023-05-10T03:29:51;5.93;;;5.63;;
11338;SDS011;5724;42.684;23.252;2023-05-10T03:32:18;4.97;;;4.77;;
11338;SDS011;5724;42.684;23.252;2023-05-10T03:34:43;5.37;;;5.07;;
11338;SDS011;5724;42.684;23.252;2023-05-10T03:37:09;5.23;;;4.93;;
11338;SDS011;5724;42.684;23.252;2023-05-10T03:39:35;5.37;;;5.07;;
11338;SDS011;5724;42.684;23.252;2023-05-10T03:42:00;5.43;;;5.13;;
11338;SDS011;5724;42.684;23.252;2023-05-10T03:44:26;5.40;;;5.10;;
11338;SDS011;5724;42.684;23.252;2023-05-10T03:46:51;4.97;;;4.77;;
11338;SDS011;5724;42.684;23.252;2023-05-10T03:49:17;6.10;;;5.70;;
11338;SDS011;5724;42.684;23.252;2023-05-10T03:51:42;6.23;;;5.00;;
11338;SDS011;5724;42.684;23.252;2023-05-10T03:54:08;5.13;;;4.83;;
11338;SDS011;5724;42.684;23.252;2023-05-10T03:56:33;5.33;;;4.93;;
11338;SDS011;5724;42.684;23.252;2023-05-10T03:58:59;5.47;;;5.07;;
11338;SDS011;5724;42.684;23.252;2023-05-10T04:01:24;5.00;;;4.80;;
11338;SDS011;5724;42.684;23.252;2023-05-10T04:03:50;6.00;;;5.50;;
11338;SDS011;5724;42.684;23.252;2023-05-10T04:06:15;6.03;;;5.63;;
11338;SDS011;5724;42.684;23.252;2023-05-10T04:08:41;5.63;;;5.33;;
11338;SDS011;5724;42.684;23.252;2023-05-10T04:11:07;5.20;;;4.90;;
11338;SDS011;5724;42.684;23.252;2023-05-10T04:13:33;6.57;;;5.10;;
11338;SDS011;5724;42.684;23.252;2023-05-10T04:15:58;4.90;;;4.60;;
11338;SDS011;5724;42.684;23.252;2023-05-10T04:18:24;5.13;;;4.83;;
11338;SDS011;5724;42.684;23.252;2023-05-10T04:20:49;5.00;;;4.70;;
11338;SDS011;5724;42.684;23.252;2023-05-10T04:23:15;4.70;;;4.50;;
11338;SDS011;5724;42.684;23.252;2023-05-10T04:25:41;5.03;;;4.63;;
11338;SDS011;5724;42.684;23.252;2023-05-10T04:28:07;5.73;;;5.23;;
11338;SDS011;5724;42.684;23.252;2023-05-10T04:30:33;5.33;;;5.07;;
11338;SDS011;5724;42.684;23.252;2023-05-10T04:32:59;5.40;;;5.00;;
11338;SDS011;5724;42.684;23.252;2023-05-10T04:35:26;5.40;;;5.00;;
11338;SDS011;5724;42.684;23.252;2023-05-10T04:37:53;5.37;;;4.97;;
11338;SDS011;5724;42.684;23.252;2023-05-10T04:40:18;5.57;;;5.17;;
11338;SDS011;5724;42.684;23.252;2023-05-10T04:42:44;5.07;;;4.77;;
11338;SDS011;5724;42.684;23.252;2023-05-10T04:45:10;5.90;;;5.50;;
11338;SDS011;5724;42.684;23.252;2023-05-10T04:47:35;4.90;;;4.60;;
11338;SDS011;5724;42.684;23.252;2023-05-10T04:50:02;5.63;;;5.30;;
11338;SDS011;5724;42.684;23.252;2023-05-10T04:52:28;5.50;;;5.20;;
11338;SDS011;5724;42.684;23.252;2023-05-10T04:54:53;6.40;;;6.00;;
11338;SDS011;5724;42.684;23.252;2023-05-10T04:57:19;6.43;;;5.90;;
11338;SDS011;5724;42.684;23.252;2023-05-10T04:59:44;6.60;;;6.13;;
11338;SDS011;5724;42.684;23.252;2023-05-10T05:02:10;6.83;;;6.33;;
11338;SDS011;5724;42.684;23.252;2023-05-10T05:04:35;7.23;;;6.63;;
11338;SDS011;5724;42.684;23.252;2023-05-10T05:07:01;6.67;;;6.27;;
11338;SDS011;5724;42.684;23.252;2023-05-10T05:09:26;7.47;;;6.83;;
11338;SDS011;5724;42.684;23.252;2023-05-10T05:11:52;5.97;;;5.60;;
11338;SDS011;5724;42.684;23.252;2023-05-10T05:14:17;6.43;;;6.03;;
11338;SDS011;5724;42.684;23.252;2023-05-10T05:16:43;6.17;;;5.67;;
11338;SDS011;5724;42.684;23.252;2023-05-10T05:19:08;7.17;;;6.67;;
11338;SDS011;5724;42.684;23.252;2023-05-10T05:21:33;6.33;;;5.90;;
11338;SDS011;5724;42.684;23.252;2023-05-10T05:23:59;6.83;;;6.27;;
11338;SDS011;5724;42.684;23.252;2023-05-10T05:26:25;6.57;;;6.17;;
11338;SDS011;5724;42.684;23.252;2023-05-10T05:28:51;6.80;;;6.17;;
11338;SDS011;5724;42.684;23.252;2023-05-10T05:31:19;6.50;;;6.10;;
11338;SDS011;5724;42.684;23.252;2023-05-10T05:33:45;6.97;;;6.50;;
11338;SDS011;5724;42.684;23.252;2023-05-10T05:36:10;6.77;;;6.20;;
11338;SDS011;5724;42.684;23.252;2023-05-10T05:38:36;7.03;;;6.63;;
11338;SDS011;5724;42.684;23.252;2023-05-10T05:41:01;8.83;;;6.93;;
11338;SDS011;5724;42.684;23.252;2023-05-10T05:43:27;6.83;;;6.40;;
11338;SDS011;5724;42.684;23.252;2023-05-10T05:45:53;6.57;;;6.27;;
11338;SDS011;5724;42.684;23.252;2023-05-10T05:48:19;6.87;;;6.43;;
11338;SDS011;5724;42.684;23.252;2023-05-10T05:50:44;7.57;;;6.97;;
11338;SDS011;5724;42.684;23.252;2023-05-10T05:53:10;7.17;;;6.67;;
11338;SDS011;5724;42.684;23.252;2023-05-10T05:55:36;7.77;;;7.27;;
11338;SDS011;5724;42.684;23.252;2023-05-10T05:58:01;8.07;;;7.53;;
11338;SDS011;5724;42.684;23.252;2023-05-10T06:00:27;8.60;;;8.00;;
11338;SDS011;5724;42.684;23.252;2023-05-10T06:02:53;8.57;;;7.87;;
11338;SDS011;5724;42.684;23.252;2023-05-10T06:05:18;8.13;;;7.43;;
11338;SDS011;5724;42.684;23.252;2023-05-10T06:07:43;8.20;;;7.63;;
11338;SDS011;5724;42.684;23.252;2023-05-10T06:10:11;8.77;;;8.17;;
11338;SDS011;5724;42.684;23.252;2023-05-10T06:12:36;8.77;;;8.17;;
11338;SDS011;5724;42.684;23.252;2023-05-10T06:15:02;9.60;;;8.87;;
11338;SDS011;5724;42.684;23.252;2023-05-10T06:17:29;9.43;;;8.73;;
11338;SDS011;5724;42.684;23.252;2023-05-10T06:19:55;9.00;;;8.20;;
11338;SDS011;5724;42.684;23.252;2023-05-10T06:22:21;10.10;;;9.37;;
11338;SDS011;5724;42.684;23.252;2023-05-10T06:24:48;9.67;;;8.70;;
11338;SDS011;5724;42.684;23.252;2023-05-10T06:27:15;9.83;;;9.03;;
11338;SDS011;5724;42.684;23.252;2023-05-10T06:29:40;8.93;;;8.33;;
11338;SDS011;5724;42.684;23.252;2023-05-10T06:32:06;8.90;;;8.30;;
11338;SDS011;5724;42.684;23.252;2023-05-10T06:34:31;9.80;;;9.00;;
11338;SDS011;5724;42.684;23.252;2023-05-10T06:36:57;9.70;;;8.90;;
11338;SDS011;5724;42.684;23.252;2023-05-10T06:39:22;9.30;;;8.70;;
11338;SDS011;5724;42.684;23.252;2023-05-10T06:41:48;9.50;;;8.80;;
11338;SDS011;5724;42.684;23.252;2023-05-10T06:44:13;9.60;;;8.93;;
11338;SDS011;5724;42.684;23.252;2023-05-10T06:46:39;11.07;;;9.60;;
11338;SDS011;5724;42.684;23.252;2023-05-10T06:49:04;9.57;;;8.83;;
11338;SDS011;5724;42.684;23.252;2023-05-10T06:51:30;10.50;;;9.50;;
11338;SDS011;5724;42.684;23.252;2023-05-10T06:53:55;9.47;;;8.87;;
11338;SDS011;5724;42.684;23.252;2023-05-10T06:56:21;10.00;;;9.20;;
11338;SDS011;5724;42.684;23.252;2023-05-10T06:58:47;9.60;;;8.93;;
11338;SDS011;5724;42.684;23.252;2023-05-10T07:01:13;9.47;;;8.70;;
11338;SDS011;5724;42.684;23.252;2023-05-10T07:03:38;9.50;;;8.80;;
11338;SDS011;5724;42.684;23.252;2023-05-10T07:06:04;9.30;;;8.63;;
11338;SDS011;5724;42.684;23.252;2023-05-10T07:08:30;9.63;;;8.90;;
11338;SDS011;5724;42.684;23.252;2023-05-10T07:11:03;10.47;;;9.63;;
11338;SDS011;5724;42.684;23.252;2023-05-10T07:13:33;10.60;;;9.70;;
11338;SDS011;5724;42.684;23.252;2023-05-10T07:15:59;10.47;;;9.53;;
11338;SDS011;5724;42.684;23.252;2023-05-10T07:18:25;10.57;;;9.00;;
11338;SDS011;5724;42.684;23.252;2023-05-10T07:20:51;10.27;;;9.47;;
11338;SDS011;5724;42.684;23.252;2023-05-10T07:23:17;10.13;;;9.23;;
11338;SDS011;5724;42.684;23.252;2023-05-10T07:25:47;10.47;;;9.47;;
11338;SDS011;5724;42.684;23.252;2023-05-10T07:28:13;9.13;;;8.37;;
11338;SDS011;5724;42.684;23.252;2023-05-10T07:30:40;8.90;;;8.20;;
11338;SDS011;5724;42.684;23.252;2023-05-10T07:33:06;8.60;;;8.00;;
11338;SDS011;5724;42.684;23.252;2023-05-10T07:35:33;10.50;;;9.10;;
11338;SDS011;5724;42.684;23.252;2023-05-10T07:37:58;9.40;;;8.70;;
11338;SDS011;5724;42.684;23.252;2023-05-10T07:40:24;9.23;;;8.40;;
11338;SDS011;5724;42.684;23.252;2023-05-10T07:42:49;9.27;;;8.47;;
11338;SDS011;5724;42.684;23.252;2023-05-10T07:45:14;8.80;;;8.10;;
11338;SDS011;5724;42.684;23.252;2023-05-10T07:47:40;11.07;;;9.97;;
11338;SDS011;5724;42.684;23.252;2023-05-10T07:50:06;10.75;;;9.82;;
11338;SDS011;5724;42.684;23.252;2023-05-10T07:52:32;9.90;;;9.13;;
11338;SDS011;5724;42.684;23.252;2023-05-10T07:54:58;9.00;;;8.40;;
11338;SDS011;5724;42.684;23.252;2023-05-10T07:57:23;13.30;;;9.67;;
11338;SDS011;5724;42.684;23.252;2023-05-10T07:59:48;10.73;;;9.80;;
11338;SDS011;5724;42.684;23.252;2023-05-10T08:02:14;13.93;;;9.90;;
11338;SDS011;5724;42.684;23.252;2023-05-10T08:04:39;9.63;;;8.93;;
11338;SDS011;5724;42.684;23.252;2023-05-10T08:07:05;10.02;;;9.35;;
11338;SDS011;5724;42.684;23.252;2023-05-10T08:09:30;11.63;;;10.53;;
11338;SDS011;5724;42.684;23.252;2023-05-10T08:11:56;15.70;;;9.80;;
11338;SDS011;5724;42.684;23.252;2023-05-10T08:14:21;10.10;;;9.20;;
11338;SDS011;5724;42.684;23.252;2023-05-10T08:16:47;9.73;;;9.07;;
11338;SDS011;5724;42.684;23.252;2023-05-10T08:19:12;10.35;;;9.50;;
11338;SDS011;5724;42.684;23.252;2023-05-10T08:21:38;12.15;;;11.27;;
11338;SDS011;5724;42.684;23.252;2023-05-10T08:24:05;11.00;;;10.23;;
11338;SDS011;5724;42.684;23.252;2023-05-10T08:26:32;9.23;;;8.52;;
11338;SDS011;5724;42.684;23.252;2023-05-10T08:28:57;10.43;;;9.45;;
11338;SDS011;5724;42.684;23.252;2023-05-10T08:31:23;9.88;;;9.30;;
11338;SDS011;5724;42.684;23.252;2023-05-10T08:33:48;10.00;;;9.27;;
11338;SDS011;5724;42.684;23.252;2023-05-10T08:36:14;9.88;;;9.38;;
11338;SDS011;5724;42.684;23.252;2023-05-10T08:38:44;10.73;;;9.60;;
11338;SDS011;5724;42.684;23.252;2023-05-10T08:41:10;9.35;;;8.50;;
11338;SDS011;5724;42.684;23.252;2023-05-10T08:43:36;9.90;;;8.70;;
11338;SDS011;5724;42.684;23.252;2023-05-10T08:46:02;9.57;;;8.80;;
11338;SDS011;5724;42.684;23.252;2023-05-10T08:48:31;9.80;;;9.20;;
11338;SDS011;5724;42.684;23.252;2023-05-10T08:50:59;9.43;;;8.73;;
11338;SDS011;5724;42.684;23.252;2023-05-10T08:53:27;11.70;;;10.53;;
11338;SDS011;5724;42.684;23.252;2023-05-10T08:55:56;11.15;;;10.15;;
11338;SDS011;5724;42.684;23.252;2023-05-10T08:58:22;10.70;;;9.88;;
11338;SDS011;5724;42.684;23.252;2023-05-10T09:00:48;10.45;;;9.52;;
11338;SDS011;5724;42.684;23.252;2023-05-10T09:03:15;9.60;;;8.98;;
11338;SDS011;5724;42.684;23.252;2023-05-10T09:05:41;9.63;;;8.73;;
11338;SDS011;5724;42.684;23.252;2023-05-10T09:08:07;9.80;;;8.90;;
11338;SDS011;5724;42.684;23.252;2023-05-10T09:10:33;13.45;;;8.85;;
11338;SDS011;5724;42.684;23.252;2023-05-10T09:12:59;9.80;;;9.00;;
11338;SDS011;5724;42.684;23.252;2023-05-10T09:15:25;8.70;;;8.18;;
11338;SDS011;5724;42.684;23.252;2023-05-10T09:17:50;9.60;;;9.00;;
11338;SDS011;5724;42.684;23.252;2023-05-10T09:20:16;9.60;;;8.82;;
11338;SDS011;5724;42.684;23.252;2023-05-10T09:22:45;8.93;;;8.50;;
11338;SDS011;5724;42.684;23.252;2023-05-10T09:25:11;9.05;;;8.43;;
11338;SDS011;5724;42.684;23.252;2023-05-10T09:27:39;9.57;;;8.52;;
11338;SDS011;5724;42.684;23.252;2023-05-10T09:30:06;9.68;;;9.07;;
11338;SDS011;5724;42.684;23.252;2023-05-10T09:32:39;47.30;;;10.70;;
11338;SDS011;5724;42.684;23.252;2023-05-10T09:35:11;9.60;;;8.88;;
11338;SDS011;5724;42.684;23.252;2023-05-10T09:37:39;10.02;;;8.95;;
11338;SDS011;5724;42.684;23.252;2023-05-10T09:40:11;10.02;;;9.32;;
11338;SDS011;5724;42.684;23.252;2023-05-10T09:42:38;10.15;;;9.40;;
11338;SDS011;5724;42.684;23.252;2023-05-10T09:45:04;9.45;;;8.95;;
11338;SDS011;5724;42.684;23.252;2023-05-10T09:47:33;10.40;;;9.90;;
11338;SDS011;5724;42.684;23.252;2023-05-10T09:50:00;8.88;;;8.18;;
11338;SDS011;5724;42.684;23.252;2023-05-10T09:53:14;9.15;;;8.60;;
11338;SDS011;5724;42.684;23.252;2023-05-10T09:55:24;10.77;;;8.85;;
11338;SDS011;5724;42.684;23.252;2023-05-10T09:58:12;8.77;;;8.25;;
11338;SDS011;5724;42.684;23.252;2023-05-10T10:00:41;9.77;;;9.05;;
11338;SDS011;5724;42.684;23.252;2023-05-10T10:03:12;10.15;;;9.27;;
11338;SDS011;5724;42.684;23.252;2023-05-10T10:05:40;8.35;;;7.82;;
11338;SDS011;5724;42.684;23.252;2023-05-10T10:08:07;9.85;;;9.25;;
11338;SDS011;5724;42.684;23.252;2023-05-10T10:10:33;9.02;;;8.50;;
11338;SDS011;5724;42.684;23.252;2023-05-10T10:12:59;9.32;;;8.63;;
11338;SDS011;5724;42.684;23.252;2023-05-10T10:15:25;10.15;;;9.20;;
11338;SDS011;5724;42.684;23.252;2023-05-10T10:17:51;9.23;;;8.63;;
11338;SDS011;5724;42.684;23.252;2023-05-10T10:20:18;8.65;;;7.95;;
11338;SDS011;5724;42.684;23.252;2023-05-10T10:22:44;9.02;;;8.32;;
11338;SDS011;5724;42.684;23.252;2023-05-10T10:25:13;9.48;;;8.68;;
11338;SDS011;5724;42.684;23.252;2023-05-10T10:35:55;9.05;;;8.20;;
11338;SDS011;5724;42.684;23.252;2023-05-10T10:38:24;9.65;;;9.05;;
11338;SDS011;5724;42.684;23.252;2023-05-10T10:41:01;11.93;;;11.10;;
11338;SDS011;5724;42.684;23.252;2023-05-10T10:43:46;9.90;;;8.43;;
11338;SDS011;5724;42.684;23.252;2023-05-10T10:46:15;7.90;;;7.40;;
11338;SDS011;5724;42.684;23.252;2023-05-10T10:49:25;7.68;;;7.28;;
11338;SDS011;5724;42.684;23.252;2023-05-10T10:51:38;9.85;;;8.35;;
11338;SDS011;5724;42.684;23.252;2023-05-10T10:54:10;9.55;;;8.90;;
11338;SDS011;5724;42.684;23.252;2023-05-10T10:56:36;8.73;;;8.00;;
11338;SDS011;5724;42.684;23.252;2023-05-10T10:59:02;9.15;;;8.23;;
11338;SDS011;5724;42.684;23.252;2023-05-10T11:01:32;14.50;;;13.10;;
11338;SDS011;5724;42.684;23.252;2023-05-10T11:06:31;8.95;;;8.10;;
11338;SDS011;5724;42.684;23.252;2023-05-10T11:09:12;10.10;;;7.55;;
11338;SDS011;5724;42.684;23.252;2023-05-10T11:11:53;10.93;;;7.82;;
11338;SDS011;5724;42.684;23.252;2023-05-10T11:14:23;7.93;;;7.53;;
11338;SDS011;5724;42.684;23.252;2023-05-10T11:16:49;10.88;;;7.88;;
11338;SDS011;5724;42.684;23.252;2023-05-10T11:19:16;7.45;;;6.90;;
11338;SDS011;5724;42.684;23.252;2023-05-10T11:24:21;8.35;;;7.85;;
11338;SDS011;5724;42.684;23.252;2023-05-10T11:26:51;7.97;;;7.32;;
11338;SDS011;5724;42.684;23.252;2023-05-10T11:29:17;7.70;;;7.20;;
11338;SDS011;5724;42.684;23.252;2023-05-10T11:31:46;8.10;;;7.47;;
11338;SDS011;5724;42.684;23.252;2023-05-10T11:34:26;7.97;;;7.47;;
11338;SDS011;5724;42.684;23.252;2023-05-10T11:36:55;7.80;;;7.30;;
11338;SDS011;5724;42.684;23.252;2023-05-10T11:39:24;8.05;;;7.38;;
11338;SDS011;5724;42.684;23.252;2023-05-10T11:41:51;8.20;;;7.60;;
11338;SDS011;5724;42.684;23.252;2023-05-10T11:44:17;8.02;;;7.57;;
11338;SDS011;5724;42.684;23.252;2023-05-10T11:46:42;7.72;;;7.07;;
11338;SDS011;5724;42.684;23.252;2023-05-10T11:49:08;12.43;;;11.52;;
11338;SDS011;5724;42.684;23.252;2023-05-10T11:51:34;10.07;;;9.23;;
11338;SDS011;5724;42.684;23.252;2023-05-10T11:54:07;8.05;;;7.43;;
11338;SDS011;5724;42.684;23.252;2023-05-10T11:56:34;8.10;;;7.47;;
11338;SDS011;5724;42.684;23.252;2023-05-10T11:59:00;7.80;;;7.35;;
11338;SDS011;5724;42.684;23.252;2023-05-10T12:01:27;7.40;;;6.80;;
11338;SDS011;5724;42.684;23.252;2023-05-10T12:03:55;8.57;;;7.95;;
11338;SDS011;5724;42.684;23.252;2023-05-10T12:06:26;7.47;;;6.97;;
11338;SDS011;5724;42.684;23.252;2023-05-10T12:08:54;8.05;;;7.50;;
11338;SDS011;5724;42.684;23.252;2023-05-10T12:11:19;8.55;;;7.85;;
11338;SDS011;5724;42.684;23.252;2023-05-10T12:13:46;8.40;;;7.55;;
11338;SDS011;5724;42.684;23.252;2023-05-10T12:16:22;9.57;;;8.60;;
11338;SDS011;5724;42.684;23.252;2023-05-10T12:18:50;9.18;;;8.60;;
11338;SDS011;5724;42.684;23.252;2023-05-10T12:21:16;10.60;;;9.80;;
11338;SDS011;5724;42.684;23.252;2023-05-10T12:23:42;9.18;;;8.32;;
11338;SDS011;5724;42.684;23.252;2023-05-10T12:26:10;9.15;;;8.65;;
11338;SDS011;5724;42.684;23.252;2023-05-10T12:28:36;9.15;;;8.30;;
11338;SDS011;5724;42.684;23.252;2023-05-10T12:31:02;9.20;;;8.60;;
11338;SDS011;5724;42.684;23.252;2023-05-10T12:33:34;9.38;;;8.57;;
11338;SDS011;5724;42.684;23.252;2023-05-10T12:36:03;11.18;;;10.20;;
11338;SDS011;5724;42.684;23.252;2023-05-10T12:38:34;11.55;;;10.55;;
11338;SDS011;5724;42.684;23.252;2023-05-10T12:41:00;9.90;;;9.05;;
11338;SDS011;5724;42.684;23.252;2023-05-10T12:43:27;12.38;;;11.10;;
11338;SDS011;5724;42.684;23.252;2023-05-10T12:45:53;11.80;;;10.75;;
11338;SDS011;5724;42.684;23.252;2023-05-10T12:48:18;12.30;;;11.20;;
11338;SDS011;5724;42.684;23.252;2023-05-10T12:50:44;12.00;;;11.00;;
11338;SDS011;5724;42.684;23.252;2023-05-10T12:53:10;12.82;;;10.75;;
11338;SDS011;5724;42.684;23.252;2023-05-10T12:55:35;11.05;;;10.00;;
11338;SDS011;5724;42.684;23.252;2023-05-10T12:58:01;13.82;;;11.38;;
11338;SDS011;5724;42.684;23.252;2023-05-10T13:00:26;8.77;;;8.20;;
11338;SDS011;5724;42.684;23.252;2023-05-10T13:02:52;8.63;;;8.02;;
11338;SDS011;5724;42.684;23.252;2023-05-10T13:05:18;9.07;;;8.48;;
11338;SDS011;5724;42.684;23.252;2023-05-10T13:07:43;9.20;;;8.50;;
11338;SDS011;5724;42.684;23.252;2023-05-10T13:10:09;9.90;;;9.18;;
11338;SDS011;5724;42.684;23.252;2023-05-10T13:12:35;10.60;;;9.80;;
11338;SDS011;5724;42.684;23.252;2023-05-10T13:15:01;10.73;;;9.70;;
11338;SDS011;5724;42.684;23.252;2023-05-10T13:17:28;9.45;;;8.85;;
11338;SDS011;5724;42.684;23.252;2023-05-10T13:19:54;9.18;;;8.57;;
11338;SDS011;5724;42.684;23.252;2023-05-10T13:22:20;9.50;;;8.80;;
11338;SDS011;5724;42.684;23.252;2023-05-10T13:24:45;9.90;;;9.07;;
11338;SDS011;5724;42.684;23.252;2023-05-10T13:27:11;8.98;;;8.48;;
11338;SDS011;5724;42.684;23.252;2023-05-10T13:29:36;9.90;;;9.07;;
11338;SDS011;5724;42.684;23.252;2023-05-10T13:32:02;9.98;;;9.20;;
11338;SDS011;5724;42.684;23.252;2023-05-10T13:34:27;9.88;;;9.07;;
11338;SDS011;5724;42.684;23.252;2023-05-10T13:36:53;10.18;;;9.48;;
11338;SDS011;5724;42.684;23.252;2023-05-10T13:39:19;10.32;;;9.40;;
11338;SDS011;5724;42.684;23.252;2023-05-10T13:41:45;9.93;;;9.27;;
11338;SDS011;5724;42.684;23.252;2023-05-10T13:44:14;10.32;;;9.43;;
11338;SDS011;5724;42.684;23.252;2023-05-10T13:46:40;10.20;;;9.50;;
11338;SDS011;5724;42.684;23.252;2023-05-10T13:49:06;9.60;;;8.85;;
11338;SDS011;5724;42.684;23.252;2023-05-10T13:51:33;9.63;;;8.85;;
11338;SDS011;5724;42.684;23.252;2023-05-10T13:53:58;9.95;;;8.93;;
11338;SDS011;5724;42.684;23.252;2023-05-10T13:56:24;9.98;;;9.18;;
11338;SDS011;5724;42.684;23.252;2023-05-10T13:58:49;10.27;;;9.68;;
11338;SDS011;5724;42.684;23.252;2023-05-10T14:01:15;10.20;;;9.40;;
11338;SDS011;5724;42.684;23.252;2023-05-10T14:03:41;10.20;;;9.40;;
11338;SDS011;5724;42.684;23.252;2023-05-10T14:06:06;9.90;;;9.18;;
11338;SDS011;5724;42.684;23.252;2023-05-10T14:08:33;9.48;;;8.77;;
11338;SDS011;5724;42.684;23.252;2023-05-10T14:10:59;10.55;;;9.63;;
11338;SDS011;5724;42.684;23.252;2023-05-10T14:13:24;10.20;;;9.27;;
11338;SDS011;5724;42.684;23.252;2023-05-10T14:15:50;10.60;;;9.88;;
11338;SDS011;5724;42.684;23.252;2023-05-10T14:18:15;10.80;;;9.90;;
11338;SDS011;5724;42.684;23.252;2023-05-10T14:20:41;10.38;;;9.48;;
11338;SDS011;5724;42.684;23.252;2023-05-10T14:23:06;11.05;;;9.75;;
11338;SDS011;5724;42.684;23.252;2023-05-10T14:25:32;9.60;;;8.70;;
11338;SDS011;5724;42.684;23.252;2023-05-10T14:27:58;9.88;;;9.18;;
11338;SDS011;5724;42.684;23.252;2023-05-10T14:30:23;9.27;;;8.57;;
11338;SDS011;5724;42.684;23.252;2023-05-10T14:32:49;9.98;;;9.13;;
11338;SDS011;5724;42.684;23.252;2023-05-10T14:35:14;11.52;;;10.30;;
11338;SDS011;5724;42.684;23.252;2023-05-10T14:37:40;10.20;;;9.27;;
11338;SDS011;5724;42.684;23.252;2023-05-10T14:40:05;8.68;;;8.18;;
11338;SDS011;5724;42.684;23.252;2023-05-10T14:42:31;9.00;;;8.30;;
11338;SDS011;5724;42.684;23.252;2023-05-10T14:44:57;9.85;;;9.15;;
11338;SDS011;5724;42.684;23.252;2023-05-10T14:47:22;9.02;;;8.43;;
11338;SDS011;5724;42.684;23.252;2023-05-10T14:49:47;9.88;;;9.07;;
11338;SDS011;5724;42.684;23.252;2023-05-10T14:52:13;9.05;;;8.48;;
11338;SDS011;5724;42.684;23.252;2023-05-10T14:54:39;9.57;;;8.88;;
11338;SDS011;5724;42.684;23.252;2023-05-10T14:57:05;10.63;;;9.85;;
11338;SDS011;5724;42.684;23.252;2023-05-10T14:59:31;10.48;;;9.73;;
11338;SDS011;5724;42.684;23.252;2023-05-10T15:01:57;10.23;;;9.38;;
11338;SDS011;5724;42.684;23.252;2023-05-10T15:04:22;10.20;;;9.45;;
11338;SDS011;5724;42.684;23.252;2023-05-10T15:06:48;8.70;;;8.18;;
11338;SDS011;5724;42.684;23.252;2023-05-10T15:09:13;10.55;;;9.43;;
11338;SDS011;5724;42.684;23.252;2023-05-10T15:11:40;10.32;;;9.48;;
11338;SDS011;5724;42.684;23.252;2023-05-10T15:14:05;9.88;;;9.23;;
11338;SDS011;5724;42.684;23.252;2023-05-10T15:16:31;9.40;;;8.75;;